Time;durP1;ratioP1;P1;durP2;ratioP2;P2;SDS_P1;SDS_P2;PMS_P1;PMS_P2;Temp;Humidity;BMP_temperature;BMP_pressure;BME280_temperature;BME280_humidity;BME280_pressure;Samples;Min_cycle;Max_cycle;Signal;HPM_P1;HPM_P2
2023/03/27 00:02:10;;;;;;;15.43;3.60;;;4.20;99.90;;;;;;5053682;28;20203;-72
2023/03/27 00:04:37;;;;;;;7.93;3.13;;;4.20;99.90;;;;;;5044710;28;20216;-71
2023/03/27 00:07:18;;;;;;;7.78;1.90;;;4.20;99.90;;;;;;5053790;28;20231;-72
2023/03/27 00:09:47;;;;;;;9.40;1.55;;;4.20;99.90;;;;;;5045419;28;20211;-72
2023/03/27 00:12:14;;;;;;;12.77;3.45;;;4.20;99.90;;;;;;5044780;28;20284;-71
2023/03/27 00:14:40;;;;;;;5.45;3.15;;;4.30;99.90;;;;;;5044929;28;20229;-72
2023/03/27 00:17:08;;;;;;;13.55;2.92;;;4.20;99.90;;;;;;5046474;28;20664;-72
2023/03/27 00:19:35;;;;;;;9.77;3.05;;;4.20;99.90;;;;;;5040982;28;20668;-72
2023/03/27 00:22:02;;;;;;;4.70;2.10;;;4.30;99.90;;;;;;5041198;28;20740;-71
2023/03/27 00:24:29;;;;;;;9.90;2.00;;;4.20;99.90;;;;;;5044010;28;20690;-72
2023/03/27 00:26:58;;;;;;;10.45;2.38;;;4.20;99.90;;;;;;5040093;28;20204;-71
2023/03/27 00:29:24;;;;;;;15.10;2.40;;;4.20;99.90;;;;;;5042526;28;20230;-71
2023/03/27 00:31:52;;;;;;;6.70;2.28;;;4.20;99.90;;;;;;5041749;28;20204;-72
2023/03/27 00:34:19;;;;;;;4.25;2.05;;;4.20;99.90;;;;;;5040883;28;20254;-71
2023/03/27 00:36:49;;;;;;;6.88;1.65;;;4.30;99.90;;;;;;5042085;28;20203;-72
2023/03/27 00:39:18;;;;;;;3.47;1.75;;;4.30;99.90;;;;;;5041490;28;20271;-71
2023/03/27 00:41:46;;;;;;;7.00;2.05;;;4.30;99.90;;;;;;5044586;28;20212;-71
2023/03/27 00:44:26;;;;;;;6.15;1.63;;;4.30;99.90;;;;;;5044187;28;20226;-71
2023/03/27 00:46:55;;;;;;;12.02;3.65;;;4.40;99.90;;;;;;5046683;28;20284;-71
2023/03/27 00:49:25;;;;;;;7.38;2.10;;;4.50;99.90;;;;;;5043657;28;20291;-72
2023/03/27 00:51:53;;;;;;;8.93;2.00;;;4.60;99.90;;;;;;5043820;28;20210;-72
2023/03/27 00:54:25;;;;;;;13.50;2.20;;;4.70;99.90;;;;;;5048320;28;20306;-71
2023/03/27 00:56:54;;;;;;;8.10;2.90;;;4.70;99.90;;;;;;5046589;28;20208;-71
2023/03/27 00:59:28;;;;;;;11.57;1.85;;;4.70;99.90;;;;;;5049441;28;20203;-72
2023/03/27 01:01:55;;;;;;;7.35;2.30;;;4.80;99.90;;;;;;5041427;28;20200;-72
2023/03/27 01:04:22;;;;;;;7.40;2.13;;;4.80;99.90;;;;;;5046690;28;20215;-72
2023/03/27 01:06:52;;;;;;;6.00;2.22;;;4.70;99.90;;;;;;5036870;28;20207;-71
2023/03/27 01:09:20;;;;;;;11.90;4.75;;;4.70;99.90;;;;;;5042017;28;20724;-71
2023/03/27 01:11:55;;;;;;;9.55;1.90;;;4.70;99.90;;;;;;5036818;28;20196;-71
2023/03/27 01:14:31;;;;;;;10.25;3.42;;;4.60;99.90;;;;;;5028701;28;20315;-70
2023/03/27 01:17:21;;;;;;;11.80;2.72;;;4.60;99.90;;;;;;5026921;28;20327;-72
2023/03/27 01:20:04;;;;;;;9.55;2.35;;;4.40;99.90;;;;;;5051949;28;20294;-71
2023/03/27 01:23:00;;;;;;;22.88;2.85;;;4.50;99.90;;;;;;5045881;28;20643;-72
2023/03/27 01:26:03;;;;;;;7.30;2.08;;;4.50;99.90;;;;;;5039385;28;20650;-72
2023/03/27 01:28:45;;;;;;;9.38;2.25;;;4.60;99.90;;;;;;5050464;28;20196;-71
2023/03/27 01:31:31;;;;;;;7.97;2.50;;;4.50;99.90;;;;;;5046372;28;20306;-71
2023/03/27 01:34:16;;;;;;;9.98;2.90;;;4.60;99.90;;;;;;5051030;28;20312;-71
2023/03/27 01:37:18;;;;;;;8.68;1.65;;;4.60;99.90;;;;;;5027313;28;20258;-71
2023/03/27 01:39:51;;;;;;;15.88;1.85;;;4.70;99.90;;;;;;5039956;28;20602;-71
2023/03/27 01:42:26;;;;;;;8.57;2.80;;;4.80;99.90;;;;;;5051752;28;20192;-71
2023/03/27 01:44:58;;;;;;;9.80;2.30;;;4.80;99.90;;;;;;5051931;28;20229;-71
2023/03/27 01:47:41;;;;;;;6.57;1.90;;;4.80;99.90;;;;;;5046605;28;20200;-71
2023/03/27 01:50:20;;;;;;;5.38;2.30;;;4.80;99.90;;;;;;5052940;28;20267;-71
2023/03/27 01:52:55;;;;;;;3.88;1.67;;;4.80;99.90;;;;;;5028452;28;20208;-72
2023/03/27 01:55:28;;;;;;;14.48;2.20;;;4.70;99.90;;;;;;5038199;28;20237;-71
2023/03/27 01:57:59;;;;;;;8.82;2.10;;;4.70;99.90;;;;;;5040801;28;20200;-71
2023/03/27 02:00:37;;;;;;;7.47;2.42;;;4.60;99.90;;;;;;5055162;28;20287;-71
2023/03/27 02:03:10;;;;;;;7.03;1.83;;;4.60;99.90;;;;;;5054981;28;20721;-70
2023/03/27 02:06:00;;;;;;;8.48;3.13;;;4.60;99.90;;;;;;5039729;28;20722;-72
2023/03/27 02:08:32;;;;;;;11.15;2.78;;;4.50;99.90;;;;;;5051032;28;20202;-72
2023/03/27 02:11:13;;;;;;;9.60;2.17;;;4.50;99.90;;;;;;5050210;28;20210;-71
2023/03/27 02:13:57;;;;;;;14.52;3.65;;;4.40;99.90;;;;;;5044101;28;22202;-72
2023/03/27 02:16:32;;;;;;;11.20;2.28;;;4.30;99.90;;;;;;5040818;28;20647;-71
2023/03/27 02:19:03;;;;;;;6.90;2.25;;;4.20;99.90;;;;;;5030213;28;20616;-71
2023/03/27 02:21:31;;;;;;;10.73;2.65;;;4.20;99.90;;;;;;5040649;28;20204;-72
2023/03/27 02:24:00;;;;;;;7.82;2.10;;;4.20;99.90;;;;;;5045722;28;20212;-72
2023/03/27 02:26:29;;;;;;;6.00;2.53;;;4.20;99.90;;;;;;5043205;28;20207;-71
2023/03/27 02:29:19;;;;;;;6.88;2.22;;;4.10;99.90;;;;;;5038052;28;20287;-71
2023/03/27 02:32:02;;;;;;;18.13;2.63;;;4.10;99.90;;;;;;5046593;28;20204;-70
2023/03/27 02:34:55;;;;;;;9.90;2.67;;;4.00;99.90;;;;;;5027324;28;20222;-71
2023/03/27 02:37:30;;;;;;;10.50;1.98;;;3.90;99.90;;;;;;5038727;28;20274;-70
2023/03/27 02:40:08;;;;;;;11.80;1.92;;;3.90;99.90;;;;;;5043315;28;20239;-71
2023/03/27 02:42:43;;;;;;;10.77;1.92;;;3.80;99.90;;;;;;5033481;28;20187;-70
2023/03/27 02:45:20;;;;;;;7.45;2.63;;;3.80;99.90;;;;;;5028161;28;20227;-72
2023/03/27 02:47:52;;;;;;;18.55;3.95;;;3.80;99.90;;;;;;5028813;28;20231;-71
2023/03/27 02:50:22;;;;;;;8.18;2.40;;;3.70;99.90;;;;;;5042752;28;20191;-70
2023/03/27 02:52:53;;;;;;;6.20;2.90;;;3.70;99.90;;;;;;5040381;28;20211;-70
2023/03/27 02:55:24;;;;;;;14.70;3.47;;;3.70;99.90;;;;;;5045981;28;20306;-71
2023/03/27 02:57:58;;;;;;;9.88;2.38;;;3.70;99.90;;;;;;5049295;28;20217;-73
2023/03/27 03:00:27;;;;;;;5.22;2.55;;;3.70;99.90;;;;;;5042351;28;20543;-71
2023/03/27 03:03:00;;;;;;;9.85;2.60;;;3.70;99.90;;;;;;5051883;28;20222;-71
2023/03/27 03:05:27;;;;;;;6.65;2.85;;;3.60;99.90;;;;;;5047245;28;20666;-71
2023/03/27 03:07:56;;;;;;;19.77;5.10;;;3.60;99.90;;;;;;5046173;28;20200;-72
2023/03/27 03:10:24;;;;;;;7.53;2.78;;;3.60;99.90;;;;;;5041387;28;20204;-72
2023/03/27 03:12:54;;;;;;;3.63;2.47;;;3.60;99.90;;;;;;5037212;28;20204;-71
2023/03/27 03:15:21;;;;;;;13.85;2.70;;;3.60;99.90;;;;;;5038878;28;20224;-72
2023/03/27 03:17:48;;;;;;;5.47;2.30;;;3.50;99.90;;;;;;5037950;28;20577;-71
2023/03/27 03:20:16;;;;;;;6.60;2.65;;;3.50;99.90;;;;;;5044395;28;20278;-71
2023/03/27 03:22:43;;;;;;;5.70;2.95;;;3.50;99.90;;;;;;5048461;28;20290;-71
2023/03/27 03:25:10;;;;;;;9.68;3.60;;;3.40;99.90;;;;;;5046425;28;20199;-72
2023/03/27 03:27:40;;;;;;;9.65;2.85;;;3.40;99.90;;;;;;5049581;28;20291;-71
2023/03/27 03:30:09;;;;;;;16.50;2.40;;;3.40;99.90;;;;;;5051436;28;20230;-73
2023/03/27 03:32:36;;;;;;;8.30;3.22;;;3.30;99.90;;;;;;5041918;28;20199;-70
2023/03/27 03:35:04;;;;;;;5.72;1.88;;;3.50;99.90;;;;;;5035409;28;20247;-70
2023/03/27 03:37:37;;;;;;;1.98;1.42;;;3.30;99.90;;;;;;5050441;28;20195;-71
2023/03/27 03:40:10;;;;;;;6.18;2.00;;;3.30;99.90;;;;;;5033186;28;20215;-70
2023/03/27 03:42:43;;;;;;;8.82;2.25;;;3.30;99.90;;;;;;5051645;28;20216;-71
2023/03/27 03:45:11;;;;;;;7.47;2.05;;;3.30;99.90;;;;;;5044813;28;20260;-71
2023/03/27 03:47:39;;;;;;;7.00;2.13;;;3.30;99.90;;;;;;5037637;28;20274;-71
2023/03/27 03:50:06;;;;;;;2.92;1.48;;;3.30;99.90;;;;;;5040456;28;20208;-71
2023/03/27 03:52:34;;;;;;;4.68;1.80;;;3.30;99.90;;;;;;5042598;28;20199;-72
2023/03/27 03:55:02;;;;;;;5.25;1.70;;;3.30;99.90;;;;;;5037451;28;20689;-70
2023/03/27 03:57:29;;;;;;;4.28;1.70;;;3.40;99.90;;;;;;5035662;28;20194;-71
2023/03/27 03:59:57;;;;;;;5.32;1.50;;;3.50;99.90;;;;;;5035074;28;20203;-71
2023/03/27 04:02:28;;;;;;;4.40;1.40;;;3.60;99.90;;;;;;5034849;28;20200;-70
2023/03/27 04:04:57;;;;;;;5.78;1.73;;;3.70;99.90;;;;;;5039672;28;20269;-72
2023/03/27 04:07:30;;;;;;;4.35;2.03;;;3.80;99.90;;;;;;5043906;28;20628;-71
2023/03/27 04:09:58;;;;;;;7.15;2.90;;;3.80;99.90;;;;;;5037451;28;20531;-70
2023/03/27 04:12:25;;;;;;;15.75;2.60;;;3.70;99.90;;;;;;5038173;28;20203;-72
2023/03/27 04:14:52;;;;;;;7.00;1.80;;;3.70;99.90;;;;;;5051444;28;20250;-70
2023/03/27 04:17:19;;;;;;;6.63;1.63;;;3.60;99.90;;;;;;5053357;28;20265;-70
2023/03/27 04:19:47;;;;;;;4.70;3.05;;;3.60;99.90;;;;;;5052649;28;20195;-70
2023/03/27 04:22:21;;;;;;;9.73;2.42;;;3.60;99.90;;;;;;5038944;28;20282;-71
2023/03/27 04:24:49;;;;;;;8.52;2.80;;;3.60;99.90;;;;;;5053256;28;20548;-71
2023/03/27 04:27:51;;;;;;;3.88;1.52;;;3.60;99.90;;;;;;5034515;28;20211;-72
2023/03/27 04:30:21;;;;;;;8.48;2.10;;;3.70;99.90;;;;;;5038264;28;20203;-71
2023/03/27 04:32:53;;;;;;;9.95;2.60;;;3.80;99.90;;;;;;5052449;28;20196;-71
2023/03/27 04:35:22;;;;;;;7.78;1.80;;;3.90;99.90;;;;;;5044217;28;20211;-70
2023/03/27 04:37:49;;;;;;;8.73;3.20;;;3.90;99.90;;;;;;5038755;28;20208;-72
2023/03/27 04:40:17;;;;;;;15.68;2.30;;;3.80;99.90;;;;;;5041380;28;20199;-72
2023/03/27 04:42:45;;;;;;;6.95;2.53;;;3.70;99.90;;;;;;5035208;28;20311;-71
2023/03/27 04:45:14;;;;;;;7.85;2.05;;;3.60;99.90;;;;;;5036640;28;20198;-71
2023/03/27 04:47:41;;;;;;;8.32;2.03;;;3.50;99.90;;;;;;5044469;28;20677;-71
2023/03/27 04:50:11;;;;;;;10.40;2.28;;;3.30;99.90;;;;;;5035299;28;20201;-70
2023/03/27 04:52:41;;;;;;;8.77;2.50;;;3.30;99.90;;;;;;5038414;28;20609;-70
2023/03/27 04:55:10;;;;;;;5.05;2.30;;;3.20;99.90;;;;;;5040128;28;20230;-71
2023/03/27 04:57:40;;;;;;;5.85;2.35;;;3.20;99.90;;;;;;5037826;28;20616;-73
2023/03/27 05:00:15;;;;;;;5.65;2.92;;;3.20;99.90;;;;;;5035222;28;20205;-71
2023/03/27 05:02:43;;;;;;;12.00;3.17;;;3.20;99.90;;;;;;5026917;28;21828;-71
2023/03/27 05:05:11;;;;;;;12.60;2.63;;;3.10;99.90;;;;;;5048324;28;20242;-71
2023/03/27 05:07:38;;;;;;;6.07;2.38;;;3.10;99.90;;;;;;5042784;28;20204;-72
2023/03/27 05:10:07;;;;;;;2.35;2.13;;;3.10;99.90;;;;;;5048800;28;20254;-71
2023/03/27 05:12:34;;;;;;;11.20;2.97;;;3.10;99.90;;;;;;5034234;28;20287;-70
2023/03/27 05:15:04;;;;;;;8.23;3.35;;;3.00;99.90;;;;;;5040379;28;20648;-72
2023/03/27 05:17:32;;;;;;;5.18;1.85;;;3.00;99.90;;;;;;5043785;28;20200;-70
2023/03/27 05:19:59;;;;;;;7.75;1.75;;;3.00;99.90;;;;;;5047806;28;20222;-71
2023/03/27 05:22:26;;;;;;;3.20;2.10;;;2.90;99.90;;;;;;5050983;28;20208;-70
2023/03/27 05:24:53;;;;;;;13.75;2.70;;;2.90;99.90;;;;;;5052112;28;20243;-72
2023/03/27 05:27:21;;;;;;;8.68;2.97;;;2.90;99.90;;;;;;5046881;28;20286;-71
2023/03/27 05:29:49;;;;;;;8.32;4.38;;;2.90;99.90;;;;;;5054607;28;20688;-70
2023/03/27 05:32:15;;;;;;;7.75;4.05;;;2.90;99.90;;;;;;5036096;28;20195;-71
2023/03/27 05:34:42;;;;;;;3.33;2.20;;;2.90;99.90;;;;;;5046138;28;20233;-69
2023/03/27 05:37:10;;;;;;;4.85;2.60;;;2.90;99.90;;;;;;5042693;28;20242;-72
2023/03/27 05:39:37;;;;;;;5.68;3.15;;;2.80;99.90;;;;;;5039042;28;20262;-74
2023/03/27 05:42:04;;;;;;;5.93;2.15;;;2.90;99.90;;;;;;5047651;28;20196;-73
2023/03/27 05:44:32;;;;;;;11.43;2.90;;;2.80;99.90;;;;;;5043614;28;20643;-73
2023/03/27 05:47:00;;;;;;;9.68;2.47;;;2.90;99.90;;;;;;5041728;28;20243;-76
2023/03/27 05:49:27;;;;;;;8.25;3.20;;;3.00;99.90;;;;;;5054336;28;20278;-75
2023/03/27 05:51:54;;;;;;;5.78;3.28;;;3.00;99.90;;;;;;5040551;28;20197;-77
2023/03/27 05:54:21;;;;;;;7.18;3.67;;;3.10;99.90;;;;;;5047849;28;20681;-76
2023/03/27 05:56:48;;;;;;;9.60;3.67;;;3.20;99.90;;;;;;5046369;28;20208;-74
2023/03/27 05:59:16;;;;;;;14.48;3.15;;;3.30;99.90;;;;;;5045146;28;20305;-73
2023/03/27 06:01:44;;;;;;;7.65;2.30;;;3.30;99.90;;;;;;5043733;28;20532;-73
2023/03/27 06:04:11;;;;;;;7.55;3.85;;;3.40;99.90;;;;;;5045208;28;20215;-73
2023/03/27 06:06:38;;;;;;;7.03;3.42;;;3.40;99.90;;;;;;5040738;28;20280;-73
2023/03/27 06:09:06;;;;;;;5.63;3.25;;;3.70;99.90;;;;;;5048503;28;20243;-73
2023/03/27 06:11:33;;;;;;;12.00;3.45;;;4.10;99.90;;;;;;5047194;28;20254;-73
2023/03/27 06:14:00;;;;;;;5.80;2.53;;;4.70;99.90;;;;;;5051334;28;20224;-74
2023/03/27 06:16:27;;;;;;;10.00;3.78;;;5.40;99.90;;;;;;5047901;28;20209;-73
2023/03/27 06:18:56;;;;;;;14.75;4.30;;;6.00;99.90;;;;;;5046666;28;20259;-73
2023/03/27 06:21:23;;;;;;;7.07;3.65;;;6.70;99.90;;;;;;5050118;28;20203;-73
2023/03/27 06:23:50;;;;;;;10.27;3.33;;;7.20;99.90;;;;;;5051893;28;20282;-73
2023/03/27 06:26:18;;;;;;;5.32;2.60;;;7.30;99.90;;;;;;5053667;28;20200;-72
2023/03/27 06:28:45;;;;;;;14.63;4.05;;;6.80;99.90;;;;;;5058550;28;20198;-71
2023/03/27 06:31:13;;;;;;;8.07;2.10;;;6.30;99.90;;;;;;5060581;28;20271;-72
2023/03/27 06:33:40;;;;;;;8.38;3.13;;;5.90;99.90;;;;;;5046971;28;20224;-72
2023/03/27 06:36:09;;;;;;;9.10;2.67;;;5.60;99.90;;;;;;5054582;28;20248;-72
2023/03/27 06:38:36;;;;;;;16.75;4.18;;;5.40;99.90;;;;;;5054131;28;20197;-72
2023/03/27 06:41:04;;;;;;;6.22;2.83;;;5.20;99.90;;;;;;5043413;28;20667;-72
2023/03/27 06:43:31;;;;;;;4.47;2.63;;;5.60;99.90;;;;;;5039549;28;20673;-73
2023/03/27 06:45:58;;;;;;;8.15;2.28;;;6.40;99.90;;;;;;5050977;28;20210;-72
2023/03/27 06:48:25;;;;;;;5.00;1.95;;;7.70;99.90;;;;;;5053500;28;20295;-72
2023/03/27 06:50:53;;;;;;;4.97;2.80;;;9.20;99.90;;;;;;5045038;28;20281;-72
2023/03/27 06:53:22;;;;;;;3.30;1.80;;;10.10;99.90;;;;;;5048838;28;20371;-72
2023/03/27 06:55:50;;;;;;;10.40;3.05;;;9.70;99.90;;;;;;5049080;28;20218;-72
2023/03/27 06:58:18;;;;;;;7.95;3.30;;;8.30;99.90;;;;;;5046089;28;20287;-72
2023/03/27 07:00:45;;;;;;;7.05;2.80;;;7.50;99.90;;;;;;5038379;28;20685;-72
2023/03/27 07:03:13;;;;;;;5.22;1.73;;;6.70;99.90;;;;;;5038960;28;20244;-72
2023/03/27 07:05:40;;;;;;;2.55;1.58;;;6.40;99.90;;;;;;5041407;28;20227;-72
2023/03/27 07:08:09;;;;;;;3.78;1.85;;;5.80;99.90;;;;;;5034420;28;20238;-73
2023/03/27 07:10:38;;;;;;;6.40;1.73;;;5.40;99.90;;;;;;5039272;28;20801;-72
2023/03/27 07:13:06;;;;;;;4.18;1.42;;;5.00;99.90;;;;;;5035880;28;20220;-73
2023/03/27 07:15:34;;;;;;;2.55;1.80;;;4.60;99.90;;;;;;5044920;28;20200;-72
2023/03/27 07:18:03;;;;;;;10.55;2.50;;;4.60;99.90;;;;;;5040354;28;20205;-73
2023/03/27 07:20:31;;;;;;;2.83;1.52;;;4.50;99.90;;;;;;5043211;28;20280;-71
2023/03/27 07:23:00;;;;;;;4.97;2.40;;;4.80;99.90;;;;;;5042353;28;20702;-72
2023/03/27 07:25:31;;;;;;;5.63;1.85;;;6.30;99.90;;;;;;5045105;28;20555;-73
2023/03/27 07:28:00;;;;;;;7.03;2.03;;;8.10;99.90;;;;;;5048534;28;20204;-70
2023/03/27 07:30:27;;;;;;;2.72;1.60;;;9.20;99.90;;;;;;5047419;28;20285;-70
2023/03/27 07:32:56;;;;;;;6.07;1.77;;;10.10;99.90;;;;;;5044794;28;20224;-72
2023/03/27 07:35:23;;;;;;;10.23;3.53;;;10.90;99.90;;;;;;5049585;28;20570;-72
2023/03/27 07:37:54;;;;;;;6.60;3.17;;;11.50;99.90;;;;;;5042909;28;20649;-71
2023/03/27 07:40:22;;;;;;;2.85;1.70;;;11.80;99.90;;;;;;5053136;28;20253;-73
2023/03/27 07:42:50;;;;;;;6.97;2.00;;;11.60;98.40;;;;;;5044881;28;20563;-72
2023/03/27 07:45:19;;;;;;;9.30;1.95;;;11.30;99.40;;;;;;5047545;28;20216;-71
2023/03/27 07:47:46;;;;;;;9.25;2.30;;;10.80;99.90;;;;;;5051273;28;20205;-70
2023/03/27 07:50:15;;;;;;;4.05;1.67;;;10.90;99.90;;;;;;5052439;28;20226;-73
2023/03/27 07:52:44;;;;;;;7.07;2.20;;;11.90;99.90;;;;;;5046713;28;20209;-71
2023/03/27 07:55:13;;;;;;;3.40;2.10;;;11.30;97.80;;;;;;5050434;28;20613;-73
2023/03/27 07:57:41;;;;;;;6.10;2.30;;;10.30;99.70;;;;;;5042020;28;20285;-73
2023/03/27 08:00:10;;;;;;;6.18;2.35;;;9.50;99.90;;;;;;5048197;28;20274;-73
2023/03/27 08:02:39;;;;;;;5.20;1.17;;;9.00;99.90;;;;;;5051589;28;20245;-72
2023/03/27 08:05:07;;;;;;;1.80;1.45;;;9.40;99.90;;;;;;5049398;28;20203;-74
2023/03/27 08:07:35;;;;;;;3.55;1.15;;;10.30;99.90;;;;;;5047809;28;20205;-73
2023/03/27 08:10:03;;;;;;;6.70;1.92;;;11.40;99.80;;;;;;5051912;28;20202;-72
2023/03/27 08:12:31;;;;;;;3.22;1.70;;;12.60;97.50;;;;;;5045555;28;20191;-72
2023/03/27 08:15:01;;;;;;;4.47;1.50;;;13.30;93.80;;;;;;5042073;28;20259;-73
2023/03/27 08:17:29;;;;;;;7.07;1.30;;;14.30;93.10;;;;;;5043038;28;20213;-74
2023/03/27 08:19:59;;;;;;;6.40;1.48;;;14.70;90.80;;;;;;5047638;28;20212;-72
2023/03/27 08:22:27;;;;;;;4.75;1.67;;;14.50;90.90;;;;;;5044162;28;20210;-71
2023/03/27 08:24:56;;;;;;;2.90;1.80;;;14.50;89.80;;;;;;5049790;28;20288;-75
2023/03/27 08:27:26;;;;;;;3.80;1.65;;;13.50;90.30;;;;;;5043123;28;20567;-77
2023/03/27 08:29:53;;;;;;;4.00;1.98;;;12.90;91.40;;;;;;5043750;28;20202;-72
2023/03/27 08:32:21;;;;;;;17.17;2.25;;;12.80;90.90;;;;;;5038884;28;20187;-76
2023/03/27 08:34:48;;;;;;;6.45;1.95;;;13.60;90.60;;;;;;5052351;28;20223;-74
2023/03/27 08:37:18;;;;;;;2.72;1.08;;;13.90;88.10;;;;;;5042376;28;20287;-71
2023/03/27 08:39:46;;;;;;;5.37;1.80;;;14.80;86.90;;;;;;5043493;28;20316;-72
2023/03/27 08:42:17;;;;;;;4.28;1.20;;;15.30;85.70;;;;;;5041607;28;20452;-71
2023/03/27 08:44:45;;;;;;;3.08;1.20;;;15.10;85.10;;;;;;5038072;28;20234;-71
2023/03/27 08:47:17;;;;;;;5.47;1.73;;;15.30;85.20;;;;;;5039132;28;20204;-71
2023/03/27 08:49:51;;;;;;;5.80;1.90;;;15.70;83.30;;;;;;5040947;28;20449;-72
2023/03/27 08:52:23;;;;;;;5.75;1.70;;;14.60;82.50;;;;;;5041958;28;20938;-71
2023/03/27 08:54:57;;;;;;;3.47;1.83;;;12.70;86.00;;;;;;5044472;28;20235;-73
2023/03/27 08:57:27;;;;;;;7.57;2.83;;;11.40;90.00;;;;;;5046123;28;20211;-74
2023/03/27 08:59:58;;;;;;;5.47;2.50;;;10.20;93.70;;;;;;5048593;28;20271;-71
2023/03/27 09:02:32;;;;;;;7.70;2.00;;;9.10;99.90;;;;;;5041091;28;20282;-71
2023/03/27 09:05:06;;;;;;;5.43;1.80;;;8.30;99.90;;;;;;5025212;28;20314;-72
2023/03/27 09:07:41;;;;;;;4.65;1.65;;;7.70;99.90;;;;;;5034338;28;20202;-72
2023/03/27 09:10:16;;;;;;;5.30;1.20;;;7.10;99.90;;;;;;5031382;28;20218;-72
2023/03/27 09:12:58;;;;;;;3.40;1.63;;;6.70;99.90;;;;;;5046028;28;20277;-71
2023/03/27 09:15:28;;;;;;;2.17;1.00;;;6.10;99.90;;;;;;5028018;28;20234;-72
2023/03/27 09:18:02;;;;;;;4.82;2.00;;;5.70;99.90;;;;;;5048455;28;20486;-73
2023/03/27 09:20:34;;;;;;;7.35;1.63;;;5.60;99.90;;;;;;5050784;28;20223;-74
2023/03/27 09:23:11;;;;;;;7.72;1.38;;;5.60;99.90;;;;;;5050056;28;20223;-73
2023/03/27 09:25:40;;;;;;;4.95;2.20;;;5.70;99.90;;;;;;5053807;28;20562;-71
2023/03/27 09:28:19;;;;;;;6.32;2.50;;;5.90;99.90;;;;;;5055589;28;20422;-75
2023/03/27 09:30:47;;;;;;;12.70;4.95;;;6.30;99.90;;;;;;5040481;28;20196;-73
2023/03/27 09:33:14;;;;;;;13.70;6.63;;;7.00;99.90;;;;;;5042226;28;20262;-72
2023/03/27 09:35:42;;;;;;;13.18;4.60;;;7.30;99.90;;;;;;5052163;28;20544;-73
2023/03/27 09:38:24;;;;;;;12.98;3.13;;;7.30;99.90;;;;;;5043672;28;20665;-72
2023/03/27 09:40:56;;;;;;;9.00;3.20;;;7.60;99.90;;;;;;5040756;28;20518;-73
2023/03/27 09:43:28;;;;;;;6.78;3.70;;;8.50;99.90;;;;;;5040935;28;20566;-75
2023/03/27 09:45:57;;;;;;;4.47;1.90;;;9.10;99.90;;;;;;5050484;28;20304;-71
2023/03/27 09:48:35;;;;;;;3.47;1.75;;;9.50;99.90;;;;;;5048011;28;20195;-74
2023/03/27 09:51:04;;;;;;;9.15;1.80;;;10.10;99.90;;;;;;5046892;28;20221;-72
2023/03/27 09:53:34;;;;;;;2.03;1.17;;;11.00;99.90;;;;;;5044538;28;20245;-72
2023/03/27 09:56:04;;;;;;;2.85;1.05;;;11.50;99.90;;;;;;5044675;28;20207;-74
2023/03/27 09:58:39;;;;;;;5.38;2.05;;;12.00;99.90;;;;;;5048251;28;20198;-73
2023/03/27 10:01:14;;;;;;;3.05;1.05;;;12.30;98.80;;;;;;5032752;28;20205;-73
2023/03/27 10:03:47;;;;;;;3.65;1.50;;;12.40;97.20;;;;;;5049302;28;20226;-74
2023/03/27 10:06:24;;;;;;;8.82;1.67;;;12.90;96.50;;;;;;5037116;28;20539;-75
2023/03/27 10:08:54;;;;;;;4.45;1.40;;;13.20;95.30;;;;;;5050564;28;20200;-74
2023/03/27 10:11:28;;;;;;;4.00;1.58;;;13.50;93.70;;;;;;5039093;28;20196;-75
2023/03/27 10:13:57;;;;;;;1.90;1.08;;;13.40;93.70;;;;;;5054986;28;20219;-75
2023/03/27 10:16:26;;;;;;;3.72;1.83;;;13.50;94.00;;;;;;5055848;28;20203;-74
2023/03/27 10:19:00;;;;;;;5.53;1.70;;;13.90;93.60;;;;;;5040198;28;20623;-75
2023/03/27 10:21:32;;;;;;;4.20;1.45;;;14.30;92.50;;;;;;5049069;28;20740;-74
2023/03/27 10:24:04;;;;;;;3.70;1.70;;;14.50;91.30;;;;;;5037914;28;20218;-75
2023/03/27 10:26:40;;;;;;;5.28;1.13;;;14.20;90.80;;;;;;5052821;28;20200;-73
2023/03/27 10:29:23;;;;;;;4.60;1.50;;;13.90;90.20;;;;;;5034940;28;20226;-73
2023/03/27 10:31:52;;;;;;;4.13;1.58;;;14.00;88.90;;;;;;5053876;28;20203;-74
2023/03/27 10:34:42;;;;;;;5.43;1.52;;;13.80;91.60;;;;;;5040770;28;20266;-73
2023/03/27 10:37:22;;;;;;;9.98;1.67;;;13.20;91.50;;;;;;5042856;28;20576;-74
2023/03/27 10:39:52;;;;;;;3.22;1.48;;;13.00;92.00;;;;;;5039664;28;20535;-72
2023/03/27 10:42:22;;;;;;;4.97;1.70;;;12.30;92.50;;;;;;5050789;28;20212;-73
2023/03/27 10:44:53;;;;;;;4.65;1.30;;;11.50;94.20;;;;;;5048519;28;20738;-73
2023/03/27 10:47:22;;;;;;;7.85;1.80;;;10.90;94.50;;;;;;5050919;28;20596;-73
2023/03/27 10:50:00;;;;;;;6.63;2.05;;;10.40;96.80;;;;;;5037742;28;21039;-74
2023/03/27 10:52:36;;;;;;;5.95;1.30;;;9.80;99.90;;;;;;5050289;28;20207;-72
2023/03/27 10:55:20;;;;;;;7.97;1.40;;;9.40;99.90;;;;;;5026670;28;20276;-70
2023/03/27 10:57:53;;;;;;;3.88;1.92;;;9.80;99.90;;;;;;5020308;28;20298;-72
2023/03/27 11:00:31;;;;;;;5.07;1.20;;;10.20;99.90;;;;;;5033396;28;20200;-73
2023/03/27 11:03:05;;;;;;;7.05;1.55;;;10.10;99.90;;;;;;5035715;28;20271;-72
2023/03/27 11:05:36;;;;;;;5.05;1.30;;;10.20;99.90;;;;;;5046356;28;20591;-73
2023/03/27 11:08:09;;;;;;;2.85;1.50;;;9.70;99.90;;;;;;5052538;28;20195;-72
2023/03/27 11:10:41;;;;;;;4.53;1.38;;;9.70;98.70;;;;;;5048802;28;20229;-73
2023/03/27 11:13:15;;;;;;;3.70;1.25;;;9.60;98.00;;;;;;5042728;28;20224;-71
2023/03/27 11:15:48;;;;;;;3.55;1.05;;;9.00;96.70;;;;;;5041349;28;20210;-72
2023/03/27 11:18:21;;;;;;;2.38;1.35;;;8.90;98.00;;;;;;5043063;28;20223;-72
2023/03/27 11:20:52;;;;;;;3.83;0.90;;;9.10;98.30;;;;;;5030073;28;20200;-74
2023/03/27 11:23:27;;;;;;;2.20;0.98;;;9.40;98.10;;;;;;5052257;28;20221;-74
2023/03/27 11:25:58;;;;;;;2.70;0.90;;;9.80;97.80;;;;;;5042839;28;20202;-74
2023/03/27 11:28:35;;;;;;;3.35;0.80;;;9.70;96.80;;;;;;5050279;28;20204;-72
2023/03/27 11:31:06;;;;;;;1.95;0.95;;;9.40;97.50;;;;;;5047672;28;20227;-74
2023/03/27 11:33:41;;;;;;;4.22;1.05;;;9.50;99.90;;;;;;5043252;28;20609;-73
2023/03/27 11:36:29;;;;;;;1.02;0.70;;;9.60;99.50;;;;;;5042205;28;20322;-73
2023/03/27 11:39:07;;;;;;;4.75;0.93;;;9.70;99.90;;;;;;5041406;28;20192;-74
2023/03/27 11:41:36;;;;;;;3.97;1.23;;;10.00;99.90;;;;;;5038445;28;20665;-73
2023/03/27 11:44:16;;;;;;;1.65;0.88;;;10.50;98.40;;;;;;5036794;28;20703;-74
2023/03/27 11:46:55;;;;;;;2.85;1.10;;;10.40;96.40;;;;;;5053589;28;20249;-74
2023/03/27 11:49:35;;;;;;;3.17;0.90;;;10.20;96.40;;;;;;5053897;28;20260;-74
2023/03/27 11:52:14;;;;;;;1.80;0.90;;;9.70;97.10;;;;;;5026779;28;20258;-73
2023/03/27 11:54:55;;;;;;;3.20;0.80;;;9.10;96.90;;;;;;5044174;28;20255;-71
2023/03/27 11:57:25;;;;;;;5.82;1.15;;;8.80;97.60;;;;;;5023119;28;20215;-73
2023/03/27 12:00:05;;;;;;;4.80;1.75;;;8.40;99.90;;;;;;5050313;28;20199;-73
2023/03/27 12:03:05;;;;;;;4.15;1.23;;;8.30;99.90;;;;;;5040166;28;20206;-74
2023/03/27 12:05:42;;;;;;;5.50;1.80;;;8.10;99.90;;;;;;5047442;28;20215;-73
2023/03/27 12:08:20;;;;;;;5.03;1.65;;;8.00;99.90;;;;;;5037090;28;20243;-74
2023/03/27 12:10:50;;;;;;;4.68;2.22;;;7.50;99.90;;;;;;5019462;28;20598;-73
2023/03/27 12:13:36;;;;;;;6.28;1.55;;;7.00;99.90;;;;;;5042227;28;20258;-72
2023/03/27 12:16:20;;;;;;;7.47;2.85;;;6.80;99.90;;;;;;5040957;28;20271;-72
2023/03/27 12:19:00;;;;;;;10.00;1.58;;;6.60;99.90;;;;;;5039607;28;20317;-72
2023/03/27 12:21:40;;;;;;;5.35;2.65;;;6.60;99.90;;;;;;5037222;28;20563;-70
2023/03/27 12:24:27;;;;;;;5.78;1.50;;;7.10;99.90;;;;;;5027729;28;20227;-72
2023/03/27 12:27:12;;;;;;;7.18;1.48;;;7.60;99.90;;;;;;5028235;28;20552;-71
2023/03/27 12:29:56;;;;;;;2.75;1.00;;;7.80;99.90;;;;;;5041525;28;20242;-71
2023/03/27 12:32:41;;;;;;;3.72;1.30;;;7.80;99.90;;;;;;5040983;28;20226;-72
2023/03/27 12:35:11;;;;;;;7.43;1.38;;;7.80;99.90;;;;;;5052392;28;20245;-72
2023/03/27 12:37:44;;;;;;;3.08;1.08;;;7.80;99.90;;;;;;5046649;28;20671;-72
2023/03/27 12:40:28;;;;;;;2.35;1.20;;;7.90;99.90;;;;;;5044851;28;20203;-73
2023/03/27 12:43:06;;;;;;;1.50;0.90;;;8.00;99.90;;;;;;5045105;28;20237;-72
2023/03/27 12:45:35;;;;;;;4.22;1.58;;;8.10;99.90;;;;;;5047163;28;20192;-73
2023/03/27 12:48:20;;;;;;;3.38;2.05;;;8.20;99.90;;;;;;5052759;28;20204;-72
2023/03/27 12:51:05;;;;;;;5.93;1.75;;;8.30;99.90;;;;;;5048554;28;20213;-71
2023/03/27 12:53:58;;;;;;;5.72;1.70;;;8.50;99.90;;;;;;5048968;28;20230;-72
2023/03/27 12:56:41;;;;;;;9.50;3.20;;;8.70;99.90;;;;;;5039472;28;20259;-72
2023/03/27 12:59:19;;;;;;;3.97;1.13;;;8.80;99.90;;;;;;5042895;28;20270;-73
2023/03/27 13:02:09;;;;;;;4.20;1.40;;;9.00;99.40;;;;;;5046024;28;20595;-75
2023/03/27 13:05:03;;;;;;;3.75;1.20;;;9.30;98.60;;;;;;5043322;28;20229;-72
2023/03/27 13:07:36;;;;;;;5.88;1.40;;;9.20;96.60;;;;;;5017537;28;20646;-74
2023/03/27 13:10:20;;;;;;;5.53;1.35;;;9.00;95.70;;;;;;5056055;22;20246;-81
2023/03/27 13:13:39;;;;;;;4.97;1.55;;;9.00;95.70;;;;;;5076093;28;20211;-81
2023/03/27 13:16:30;;;;;;;5.00;1.88;;;8.80;96.60;;;;;;5052605;28;20226;-82
2023/03/27 13:19:22;;;;;;;6.35;2.10;;;8.80;98.50;;;;;;5061694;28;20219;-80
2023/03/27 13:22:02;;;;;;;3.70;1.30;;;8.90;99.10;;;;;;5061769;28;20194;-79